sensor_id;sensor_type;location;lat;lon;timestamp;pressure;altitude;pressure_sealevel;temperature;humidity
77706;BME280;66874;45.274;5.880;2023-04-25T02:01:01;98493.03;;;11.41;68.52
77706;BME280;66874;45.274;5.880;2023-04-25T02:03:26;98491.41;;;11.37;68.81
77706;BME280;66874;45.274;5.880;2023-04-25T02:05:51;98487.16;;;11.34;69.10
77706;BME280;66874;45.274;5.880;2023-04-25T02:08:17;98486.38;;;11.31;69.26
77706;BME280;66874;45.274;5.880;2023-04-25T02:10:43;98481.31;;;11.24;69.41
77706;BME280;66874;45.274;5.880;2023-04-25T02:13:09;98479.66;;;11.22;69.48
77706;BME280;66874;45.274;5.880;2023-04-25T02:15:34;98480.63;;;11.19;69.75
77706;BME280;66874;45.274;5.880;2023-04-25T02:18:00;98479.00;;;11.15;69.95
77706;BME280;66874;45.274;5.880;2023-04-25T02:20:26;98477.41;;;11.10;70.06
77706;BME280;66874;45.274;5.880;2023-04-25T02:22:52;98474.94;;;11.05;70.00
77706;BME280;66874;45.274;5.880;2023-04-25T02:25:19;98469.00;;;11.00;70.09
77706;BME280;66874;45.274;5.880;2023-04-25T02:27:45;98476.13;;;10.95;69.95
77706;BME280;66874;45.274;5.880;2023-04-25T05:31:30;98562.66;;;10.58;72.52
77706;BME280;66874;45.274;5.880;2023-04-25T05:33:56;98569.53;;;10.62;72.49
77706;BME280;66874;45.274;5.880;2023-04-25T05:36:21;98555.59;;;10.61;72.55
77706;BME280;66874;45.274;5.880;2023-04-25T05:38:47;98567.91;;;10.58;72.92
77706;BME280;66874;45.274;5.880;2023-04-25T05:41:12;98571.31;;;10.60;72.87
77706;BME280;66874;45.274;5.880;2023-04-25T05:43:38;98581.66;;;10.64;72.90
77706;BME280;66874;45.274;5.880;2023-04-25T05:46:03;98587.63;;;10.69;72.93
77706;BME280;66874;45.274;5.880;2023-04-25T05:48:29;98585.81;;;10.71;72.75
77706;BME280;66874;45.274;5.880;2023-04-25T05:50:55;98585.75;;;10.74;72.71
77706;BME280;66874;45.274;5.880;2023-04-25T05:53:20;98585.66;;;10.78;72.72
77706;BME280;66874;45.274;5.880;2023-04-25T05:55:47;98596.84;;;10.83;72.57
77706;BME280;66874;45.274;5.880;2023-04-25T05:58:12;98584.47;;;10.89;72.47
77706;BME280;66874;45.274;5.880;2023-04-25T06:00:37;98581.56;;;10.98;72.23
77706;BME280;66874;45.274;5.880;2023-04-25T06:03:03;98590.03;;;11.08;72.04
77706;BME280;66874;45.274;5.880;2023-04-25T06:05:29;98592.56;;;11.11;71.84
77706;BME280;66874;45.274;5.880;2023-04-25T06:07:54;98592.47;;;11.14;71.81
77706;BME280;66874;45.274;5.880;2023-04-25T06:10:20;98593.34;;;11.15;71.77
77706;BME280;66874;45.274;5.880;2023-04-25T06:12:45;98592.47;;;11.14;71.96
77706;BME280;66874;45.274;5.880;2023-04-25T06:15:11;98599.38;;;11.17;71.70
77706;BME280;66874;45.274;5.880;2023-04-25T06:17:36;98597.47;;;11.22;71.80
77706;BME280;66874;45.274;5.880;2023-04-25T06:20:02;98596.53;;;11.24;72.03
77706;BME280;66874;45.274;5.880;2023-04-25T06:22:29;98599.09;;;11.26;72.18
77706;BME280;66874;45.274;5.880;2023-04-25T06:24:54;98606.06;;;11.27;72.32
77706;BME280;66874;45.274;5.880;2023-04-25T06:27:22;98599.84;;;11.31;72.31
77706;BME280;66874;45.274;5.880;2023-04-25T06:29:47;98600.53;;;11.38;72.16
77706;BME280;66874;45.274;5.880;2023-04-25T06:32:13;98602.09;;;11.43;72.03
77706;BME280;66874;45.274;5.880;2023-04-25T06:34:38;98606.31;;;11.47;72.08
77706;BME280;66874;45.274;5.880;2023-04-25T06:37:03;98607.00;;;11.54;72.06
77706;BME280;66874;45.274;5.880;2023-04-25T06:39:29;98610.25;;;11.62;72.19
77706;BME280;66874;45.274;5.880;2023-04-25T06:41:55;98617.88;;;11.70;71.95
77706;BME280;66874;45.274;5.880;2023-04-25T06:44:20;98619.44;;;11.76;71.67
77706;BME280;66874;45.274;5.880;2023-04-25T06:46:48;98625.59;;;11.74;71.42
77706;BME280;66874;45.274;5.880;2023-04-25T06:49:13;98619.44;;;11.76;71.38
77706;BME280;66874;45.274;5.880;2023-04-25T06:51:38;98620.25;;;11.78;71.25
77706;BME280;66874;45.274;5.880;2023-04-25T06:54:04;98618.41;;;11.81;71.40
77706;BME280;66874;45.274;5.880;2023-04-25T06:56:30;98626.06;;;11.87;71.19
77706;BME280;66874;45.274;5.880;2023-04-25T06:58:56;98627.66;;;11.93;71.10
77706;BME280;66874;45.274;5.880;2023-04-25T07:01:21;98623.94;;;12.00;70.87
77706;BME280;66874;45.274;5.880;2023-04-25T07:03:46;98632.44;;;12.07;70.58
77706;BME280;66874;45.274;5.880;2023-04-25T07:06:12;98621.88;;;12.10;70.74
77706;BME280;66874;45.274;5.880;2023-04-25T07:08:37;98618.41;;;12.09;70.70
77706;BME280;66874;45.274;5.880;2023-04-25T07:11:03;98623.97;;;11.98;70.96
77706;BME280;66874;45.274;5.880;2023-04-25T07:13:28;98621.59;;;11.91;71.29
77706;BME280;66874;45.274;5.880;2023-04-25T07:15:53;98633.84;;;11.90;71.57
77706;BME280;66874;45.274;5.880;2023-04-25T07:18:19;98640.63;;;11.97;71.71
77706;BME280;66874;45.274;5.880;2023-04-25T07:20:44;98639.59;;;12.03;71.76
77706;BME280;66874;45.274;5.880;2023-04-25T07:23:09;98635.03;;;12.08;71.67
77706;BME280;66874;45.274;5.880;2023-04-25T07:25:35;98643.69;;;12.10;71.78
77706;BME280;66874;45.274;5.880;2023-04-25T07:28:00;98648.00;;;12.13;71.74
77706;BME280;66874;45.274;5.880;2023-04-25T07:30:26;98645.19;;;12.19;71.62
77706;BME280;66874;45.274;5.880;2023-04-25T07:32:51;98640.75;;;12.21;71.38
77706;BME280;66874;45.274;5.880;2023-04-25T07:35:17;98646.75;;;12.25;71.45
77706;BME280;66874;45.274;5.880;2023-04-25T07:37:42;98643.97;;;12.29;71.24
77706;BME280;66874;45.274;5.880;2023-04-25T07:40:08;98654.34;;;12.34;71.07
77706;BME280;66874;45.274;5.880;2023-04-25T07:42:34;98651.28;;;12.46;70.74
77706;BME280;66874;45.274;5.880;2023-04-25T07:45:00;98651.66;;;12.60;70.69
77706;BME280;66874;45.274;5.880;2023-04-25T07:47:26;98660.00;;;12.73;70.16
77706;BME280;66874;45.274;5.880;2023-04-25T07:49:51;98658.91;;;12.79;69.95
77706;BME280;66874;45.274;5.880;2023-04-25T07:52:17;98658.06;;;12.78;69.50
77706;BME280;66874;45.274;5.880;2023-04-25T07:54:42;98665.25;;;12.73;69.35
77706;BME280;66874;45.274;5.880;2023-04-25T07:57:07;98672.28;;;12.73;69.16
77706;BME280;66874;45.274;5.880;2023-04-25T07:59:33;98670.41;;;12.76;68.99
77706;BME280;66874;45.274;5.880;2023-04-25T08:02:00;98672.59;;;12.88;68.99
77706;BME280;66874;45.274;5.880;2023-04-25T08:04:26;98669.63;;;12.98;68.58
77706;BME280;66874;45.274;5.880;2023-04-25T08:06:51;98663.44;;;13.00;68.42
77706;BME280;66874;45.274;5.880;2023-04-25T08:09:19;98669.81;;;12.93;68.26
77706;BME280;66874;45.274;5.880;2023-04-25T08:11:45;98677.50;;;12.98;68.14
77706;BME280;66874;45.274;5.880;2023-04-25T08:14:12;98672.09;;;13.02;68.13
77706;BME280;66874;45.274;5.880;2023-04-25T08:16:37;98679.88;;;13.05;68.06
77706;BME280;66874;45.274;5.880;2023-04-25T08:19:03;98681.50;;;13.34;67.92
77706;BME280;66874;45.274;5.880;2023-04-25T08:21:28;98697.28;;;13.58;67.48
77706;BME280;66874;45.274;5.880;2023-04-25T08:23:54;98688.19;;;13.66;67.34
77706;BME280;66874;45.274;5.880;2023-04-25T08:26:19;98679.63;;;13.61;67.33
77706;BME280;66874;45.274;5.880;2023-04-25T08:28:46;98686.06;;;13.53;66.91
77706;BME280;66874;45.274;5.880;2023-04-25T08:31:11;98700.28;;;13.47;66.93
77706;BME280;66874;45.274;5.880;2023-04-25T08:33:37;98699.31;;;13.73;66.79
77706;BME280;66874;45.274;5.880;2023-04-25T08:36:02;98693.81;;;14.25;66.04
77706;BME280;66874;45.274;5.880;2023-04-25T08:38:28;98693.31;;;14.37;65.53
77706;BME280;66874;45.274;5.880;2023-04-25T08:40:54;98685.38;;;14.16;65.57
77706;BME280;66874;45.274;5.880;2023-04-25T08:43:20;98687.38;;;13.88;65.29
77706;BME280;66874;45.274;5.880;2023-04-25T08:45:46;98698.75;;;13.65;65.44
77706;BME280;66874;45.274;5.880;2023-04-25T08:48:16;98701.13;;;13.71;65.74
77706;BME280;66874;45.274;5.880;2023-04-25T08:50:50;98706.66;;;13.87;65.50
77706;BME280;66874;45.274;5.880;2023-04-25T08:53:25;98713.94;;;14.04;65.44
77706;BME280;66874;45.274;5.880;2023-04-25T08:55:51;98711.28;;;14.26;65.41
77706;BME280;66874;45.274;5.880;2023-04-25T08:58:18;98723.81;;;14.64;65.07
77706;BME280;66874;45.274;5.880;2023-04-25T09:00:46;98724.91;;;15.01;64.29
77706;BME280;66874;45.274;5.880;2023-04-25T09:03:11;98721.81;;;15.12;63.78
77706;BME280;66874;45.274;5.880;2023-04-25T09:05:37;98724.56;;;15.29;63.51
77706;BME280;66874;45.274;5.880;2023-04-25T09:08:02;98736.88;;;15.49;63.44
77706;BME280;66874;45.274;5.880;2023-04-25T09:10:28;98738.22;;;15.78;63.25
77706;BME280;66874;45.274;5.880;2023-04-25T09:13:10;98743.28;;;16.02;62.48
77706;BME280;66874;45.274;5.880;2023-04-25T09:15:50;98725.84;;;16.18;61.95
77706;BME280;66874;45.274;5.880;2023-04-25T09:18:27;98735.47;;;16.00;61.84
77706;BME280;66874;45.274;5.880;2023-04-25T09:20:54;98738.81;;;15.85;61.81
77706;BME280;66874;45.274;5.880;2023-04-25T09:23:21;98739.81;;;16.01;61.89
77706;BME280;66874;45.274;5.880;2023-04-25T09:25:48;98740.88;;;16.16;61.25
77706;BME280;66874;45.274;5.880;2023-04-25T09:28:13;98738.59;;;16.27;61.20
77706;BME280;66874;45.274;5.880;2023-04-25T09:30:39;98726.59;;;16.20;60.76
77706;BME280;66874;45.274;5.880;2023-04-25T09:33:08;98731.41;;;16.12;60.55
77706;BME280;66874;45.274;5.880;2023-04-25T09:35:39;98735.16;;;16.06;60.53
77706;BME280;66874;45.274;5.880;2023-04-25T09:38:13;98745.03;;;16.03;60.21
77706;BME280;66874;45.274;5.880;2023-04-25T09:40:43;98743.72;;;16.30;59.79
77706;BME280;66874;45.274;5.880;2023-04-25T09:43:19;98735.78;;;16.49;59.15
77706;BME280;66874;45.274;5.880;2023-04-25T09:45:45;98728.53;;;17.06;58.54
77706;BME280;66874;45.274;5.880;2023-04-25T09:48:20;98724.41;;;17.53;58.12
77706;BME280;66874;45.274;5.880;2023-04-25T09:51:08;98727.69;;;18.07;56.80
77706;BME280;66874;45.274;5.880;2023-04-25T09:53:36;98721.94;;;18.46;56.54
77706;BME280;66874;45.274;5.880;2023-04-25T09:56:04;98721.81;;;18.64;55.10
77706;BME280;66874;45.274;5.880;2023-04-25T09:58:31;98720.66;;;18.53;54.29
77706;BME280;66874;45.274;5.880;2023-04-25T10:01:00;98720.03;;;18.64;53.80
77706;BME280;66874;45.274;5.880;2023-04-25T10:03:26;98715.88;;;18.76;53.47
77706;BME280;66874;45.274;5.880;2023-04-25T10:05:55;98712.81;;;19.12;52.75
77706;BME280;66874;45.274;5.880;2023-04-25T10:08:22;98719.78;;;19.43;52.17
77706;BME280;66874;45.274;5.880;2023-04-25T10:10:48;98711.81;;;19.43;51.72
77706;BME280;66874;45.274;5.880;2023-04-25T10:13:16;98708.78;;;19.35;51.24
77706;BME280;66874;45.274;5.880;2023-04-25T10:15:41;98715.75;;;18.77;52.10
77706;BME280;66874;45.274;5.880;2023-04-25T10:18:08;98714.97;;;18.29;52.43
77706;BME280;66874;45.274;5.880;2023-04-25T10:20:33;98708.09;;;18.10;52.53
77706;BME280;66874;45.274;5.880;2023-04-25T10:23:08;98701.44;;;18.50;52.09
77706;BME280;66874;45.274;5.880;2023-04-25T10:25:36;98707.13;;;19.04;51.50
77706;BME280;66874;45.274;5.880;2023-04-25T10:28:03;98710.22;;;18.96;51.15
77706;BME280;66874;45.274;5.880;2023-04-25T10:30:29;98701.88;;;19.47;50.90
77706;BME280;66874;45.274;5.880;2023-04-25T10:32:55;98693.16;;;20.02;49.88
77706;BME280;66874;45.274;5.880;2023-04-25T10:35:27;98682.28;;;20.34;48.24
77706;BME280;66874;45.274;5.880;2023-04-25T10:40:30;98691.47;;;20.69;47.99
77706;BME280;66874;45.274;5.880;2023-04-25T10:45:59;98693.44;;;19.40;48.19
77706;BME280;66874;45.274;5.880;2023-04-25T10:48:26;98689.28;;;19.50;47.69
77706;BME280;66874;45.274;5.880;2023-04-25T10:51:08;98681.03;;;19.55;47.47
77706;BME280;66874;45.274;5.880;2023-04-25T10:53:34;98682.41;;;19.62;47.56
77706;BME280;66874;45.274;5.880;2023-04-25T10:56:00;98682.09;;;19.81;46.79
77706;BME280;66874;45.274;5.880;2023-04-25T10:58:34;98672.72;;;19.75;46.87
77706;BME280;66874;45.274;5.880;2023-04-25T11:01:01;98676.59;;;19.84;46.06
77706;BME280;66874;45.274;5.880;2023-04-25T11:03:26;98668.09;;;20.06;46.04
77706;BME280;66874;45.274;5.880;2023-04-25T11:05:52;98665.84;;;20.14;45.25
77706;BME280;66874;45.274;5.880;2023-04-25T11:08:24;98667.63;;;20.14;44.78
77706;BME280;66874;45.274;5.880;2023-04-25T11:10:58;98661.38;;;20.15;44.61
77706;BME280;66874;45.274;5.880;2023-04-25T11:13:29;98657.00;;;20.41;44.84
77706;BME280;66874;45.274;5.880;2023-04-25T11:15:55;98659.31;;;20.60;44.53
77706;BME280;66874;45.274;5.880;2023-04-25T11:18:20;98667.41;;;20.58;44.23
77706;BME280;66874;45.274;5.880;2023-04-25T11:20:47;98658.97;;;20.91;44.28
77706;BME280;66874;45.274;5.880;2023-04-25T11:23:13;98659.69;;;21.33;44.07
77706;BME280;66874;45.274;5.880;2023-04-25T11:25:38;98663.06;;;21.35;43.56
77706;BME280;66874;45.274;5.880;2023-04-25T11:28:04;98647.63;;;21.53;42.93
77706;BME280;66874;45.274;5.880;2023-04-25T11:30:29;98648.81;;;21.49;41.68
77706;BME280;66874;45.274;5.880;2023-04-25T11:32:57;98652.31;;;21.37;42.05
77706;BME280;66874;45.274;5.880;2023-04-25T11:35:23;98637.63;;;21.44;41.76
77706;BME280;66874;45.274;5.880;2023-04-25T11:37:50;98647.28;;;21.07;41.49
77706;BME280;66874;45.274;5.880;2023-04-25T11:40:16;98650.53;;;21.37;41.73
77706;BME280;66874;45.274;5.880;2023-04-25T11:42:46;98654.44;;;20.66;41.35
77706;BME280;66874;45.274;5.880;2023-04-25T11:45:13;98640.72;;;20.60;41.92
77706;BME280;66874;45.274;5.880;2023-04-25T11:47:38;98639.41;;;21.31;41.70
77706;BME280;66874;45.274;5.880;2023-04-25T11:50:06;98637.75;;;21.42;40.84
77706;BME280;66874;45.274;5.880;2023-04-25T11:52:46;98637.69;;;21.81;40.94
77706;BME280;66874;45.274;5.880;2023-04-25T11:55:16;98633.78;;;21.98;39.76
77706;BME280;66874;45.274;5.880;2023-04-25T11:57:43;98631.94;;;21.74;39.59
77706;BME280;66874;45.274;5.880;2023-04-25T12:02:36;98642.38;;;21.13;39.89
77706;BME280;66874;45.274;5.880;2023-04-25T12:05:02;98640.09;;;21.34;39.64
77706;BME280;66874;45.274;5.880;2023-04-25T12:07:31;98625.97;;;21.70;39.09
77706;BME280;66874;45.274;5.880;2023-04-25T12:09:56;98623.75;;;22.01;38.30
77706;BME280;66874;45.274;5.880;2023-04-25T12:12:27;98628.13;;;22.15;37.68
77706;BME280;66874;45.274;5.880;2023-04-25T12:14:52;98635.66;;;22.45;37.65
77706;BME280;66874;45.274;5.880;2023-04-25T12:17:20;98617.03;;;22.56;37.57
77706;BME280;66874;45.274;5.880;2023-04-25T12:19:46;98622.41;;;22.79;37.04
77706;BME280;66874;45.274;5.880;2023-04-25T12:22:22;98622.75;;;23.09;36.57
77706;BME280;66874;45.274;5.880;2023-04-25T12:24:48;98612.94;;;23.21;35.64
77706;BME280;66874;45.274;5.880;2023-04-25T12:27:15;98609.41;;;22.98;35.75
77706;BME280;66874;45.274;5.880;2023-04-25T12:29:50;98621.19;;;22.96;34.94
77706;BME280;66874;45.274;5.880;2023-04-25T12:32:16;98628.38;;;22.47;35.85
77706;BME280;66874;45.274;5.880;2023-04-25T12:34:42;98622.09;;;22.24;36.29
77706;BME280;66874;45.274;5.880;2023-04-25T12:37:08;98626.72;;;21.73;36.74
77706;BME280;66874;45.274;5.880;2023-04-25T12:39:33;98621.84;;;21.28;37.19
77706;BME280;66874;45.274;5.880;2023-04-25T12:41:59;98633.25;;;21.05;37.67
77706;BME280;66874;45.274;5.880;2023-04-25T12:44:24;98621.00;;;20.89;38.12
77706;BME280;66874;45.274;5.880;2023-04-25T12:46:50;98631.88;;;21.12;37.87
77706;BME280;66874;45.274;5.880;2023-04-25T12:49:15;98613.16;;;21.88;37.17
77706;BME280;66874;45.274;5.880;2023-04-25T12:51:41;98614.38;;;22.56;37.21
77706;BME280;66874;45.274;5.880;2023-04-25T12:54:07;98604.59;;;23.14;35.94
77706;BME280;66874;45.274;5.880;2023-04-25T12:56:36;98598.41;;;23.81;35.63
77706;BME280;66874;45.274;5.880;2023-04-25T12:59:02;98596.72;;;24.24;34.70
77706;BME280;66874;45.274;5.880;2023-04-25T13:01:30;98604.81;;;24.45;33.65
77706;BME280;66874;45.274;5.880;2023-04-25T13:03:55;98595.38;;;24.62;33.11
77706;BME280;66874;45.274;5.880;2023-04-25T13:06:22;98587.09;;;24.65;33.04
77706;BME280;66874;45.274;5.880;2023-04-25T13:08:47;98596.09;;;24.84;32.66
77706;BME280;66874;45.274;5.880;2023-04-25T13:11:13;98593.53;;;25.04;31.46
77706;BME280;66874;45.274;5.880;2023-04-25T13:13:40;98588.06;;;24.84;31.03
77706;BME280;66874;45.274;5.880;2023-04-25T13:16:06;98597.19;;;24.82;30.75
77706;BME280;66874;45.274;5.880;2023-04-25T13:18:33;98581.56;;;25.29;31.27
77706;BME280;66874;45.274;5.880;2023-04-25T13:20:58;98595.28;;;25.36;29.78
77706;BME280;66874;45.274;5.880;2023-04-25T13:23:26;98589.16;;;25.03;29.89
77706;BME280;66874;45.274;5.880;2023-04-25T13:25:52;98590.00;;;25.24;30.35
77706;BME280;66874;45.274;5.880;2023-04-25T13:28:17;98580.88;;;25.27;30.27
77706;BME280;66874;45.274;5.880;2023-04-25T13:30:43;98574.25;;;25.71;30.09
77706;BME280;66874;45.274;5.880;2023-04-25T13:33:09;98576.56;;;25.86;29.51
77706;BME280;66874;45.274;5.880;2023-04-25T13:35:36;98575.66;;;25.25;29.32
77706;BME280;66874;45.274;5.880;2023-04-25T13:38:02;98582.06;;;25.13;28.84
77706;BME280;66874;45.274;5.880;2023-04-25T13:40:29;98588.84;;;24.96;28.76
77706;BME280;66874;45.274;5.880;2023-04-25T13:42:55;98583.34;;;24.98;28.94
77706;BME280;66874;45.274;5.880;2023-04-25T13:45:21;98582.06;;;25.13;29.19
77706;BME280;66874;45.274;5.880;2023-04-25T13:47:47;98586.25;;;25.37;28.63
77706;BME280;66874;45.274;5.880;2023-04-25T13:50:13;98571.97;;;25.57;28.28
77706;BME280;66874;45.274;5.880;2023-04-25T13:52:39;98564.63;;;26.09;28.78
77706;BME280;66874;45.274;5.880;2023-04-25T13:55:05;98571.38;;;25.94;27.54
77706;BME280;66874;45.274;5.880;2023-04-25T13:57:32;98564.63;;;25.59;27.54
77706;BME280;66874;45.274;5.880;2023-04-25T13:59:58;98562.69;;;25.61;27.77
77706;BME280;66874;45.274;5.880;2023-04-25T14:02:23;98564.34;;;26.02;27.78
77706;BME280;66874;45.274;5.880;2023-04-25T14:04:48;98564.66;;;26.48;28.11
77706;BME280;66874;45.274;5.880;2023-04-25T14:07:14;98562.81;;;26.68;27.54
77706;BME280;66874;45.274;5.880;2023-04-25T14:09:43;98559.25;;;26.67;27.44
77706;BME280;66874;45.274;5.880;2023-04-25T14:12:08;98565.22;;;26.61;27.83
77706;BME280;66874;45.274;5.880;2023-04-25T14:14:34;98564.63;;;26.67;27.97
77706;BME280;66874;45.274;5.880;2023-04-25T14:16:59;98553.91;;;26.67;28.09
77706;BME280;66874;45.274;5.880;2023-04-25T14:19:25;98557.72;;;26.36;27.89
77706;BME280;66874;45.274;5.880;2023-04-25T14:21:51;98551.34;;;25.98;28.31
77706;BME280;66874;45.274;5.880;2023-04-25T14:24:16;98556.88;;;26.16;28.02
77706;BME280;66874;45.274;5.880;2023-04-25T14:26:42;98550.50;;;25.97;27.67
77706;BME280;66874;45.274;5.880;2023-04-25T14:29:08;98554.88;;;25.48;27.88
77706;BME280;66874;45.274;5.880;2023-04-25T14:31:37;98555.00;;;25.37;28.01
77706;BME280;66874;45.274;5.880;2023-04-25T14:34:02;98555.47;;;25.62;27.07
77706;BME280;66874;45.274;5.880;2023-04-25T14:36:28;98550.78;;;25.14;26.78
77706;BME280;66874;45.274;5.880;2023-04-25T14:38:54;98561.41;;;24.09;28.02
77706;BME280;66874;45.274;5.880;2023-04-25T14:41:19;98551.94;;;24.05;28.43
77706;BME280;66874;45.274;5.880;2023-04-25T14:43:44;98546.00;;;24.01;28.25
77706;BME280;66874;45.274;5.880;2023-04-25T14:46:10;98548.66;;;23.13;28.86
77706;BME280;66874;45.274;5.880;2023-04-25T14:48:36;98553.56;;;22.61;29.71
77706;BME280;66874;45.274;5.880;2023-04-25T14:51:01;98556.59;;;22.33;30.60
77706;BME280;66874;45.274;5.880;2023-04-25T14:53:27;98564.28;;;22.37;30.51
77706;BME280;66874;45.274;5.880;2023-04-25T14:55:53;98558.97;;;22.49;30.52
77706;BME280;66874;45.274;5.880;2023-04-25T14:58:18;98550.63;;;23.22;30.56
77706;BME280;66874;45.274;5.880;2023-04-25T15:00:45;98548.41;;;23.50;30.14
77706;BME280;66874;45.274;5.880;2023-04-25T15:03:10;98551.56;;;23.21;29.52
77706;BME280;66874;45.274;5.880;2023-04-25T15:05:38;98551.34;;;23.24;29.92
77706;BME280;66874;45.274;5.880;2023-04-25T15:08:04;98552.31;;;23.01;29.90
77706;BME280;66874;45.274;5.880;2023-04-25T15:10:29;98550.25;;;23.49;29.89
77706;BME280;66874;45.274;5.880;2023-04-25T15:12:55;98557.53;;;23.70;29.59
77706;BME280;66874;45.274;5.880;2023-04-25T15:15:20;98542.50;;;23.24;29.38
77706;BME280;66874;45.274;5.880;2023-04-25T15:17:46;98531.94;;;23.22;29.72
77706;BME280;66874;45.274;5.880;2023-04-25T15:20:12;98522.31;;;23.53;29.47
77706;BME280;66874;45.274;5.880;2023-04-25T15:22:39;98529.22;;;23.56;29.59
77706;BME280;66874;45.274;5.880;2023-04-25T15:25:06;98524.22;;;23.85;29.49
77706;BME280;66874;45.274;5.880;2023-04-25T15:27:33;98525.13;;;24.27;29.70
77706;BME280;66874;45.274;5.880;2023-04-25T15:29:59;98526.34;;;24.76;28.65
77706;BME280;66874;45.274;5.880;2023-04-25T15:32:25;98528.06;;;24.24;28.14
77706;BME280;66874;45.274;5.880;2023-04-25T15:34:50;98530.50;;;23.95;28.52
77706;BME280;66874;45.274;5.880;2023-04-25T15:37:16;98522.25;;;24.19;28.10
77706;BME280;66874;45.274;5.880;2023-04-25T15:39:43;98521.91;;;24.12;27.45
77706;BME280;66874;45.274;5.880;2023-04-25T15:42:09;98522.09;;;24.00;27.49
77706;BME280;66874;45.274;5.880;2023-04-25T15:44:34;98528.38;;;23.44;27.96
77706;BME280;66874;45.274;5.880;2023-04-25T15:47:00;98537.06;;;22.67;28.58
77706;BME280;66874;45.274;5.880;2023-04-25T15:49:25;98540.75;;;22.31;29.16
77706;BME280;66874;45.274;5.880;2023-04-25T15:51:52;98541.50;;;22.45;28.33
77706;BME280;66874;45.274;5.880;2023-04-25T15:54:18;98547.34;;;22.50;28.51
77706;BME280;66874;45.274;5.880;2023-04-25T15:56:43;98544.47;;;22.64;28.58
77706;BME280;66874;45.274;5.880;2023-04-25T15:59:10;98550.19;;;22.35;28.87
77706;BME280;66874;45.274;5.880;2023-04-25T16:01:36;98542.16;;;22.00;29.55
77706;BME280;66874;45.274;5.880;2023-04-25T16:04:02;98544.72;;;22.26;29.78
77706;BME280;66874;45.274;5.880;2023-04-25T16:06:27;98548.78;;;22.42;29.77
77706;BME280;66874;45.274;5.880;2023-04-25T16:08:54;98556.03;;;22.76;29.95
77706;BME280;66874;45.274;5.880;2023-04-25T16:11:20;98550.72;;;23.32;29.35
77706;BME280;66874;45.274;5.880;2023-04-25T16:13:45;98545.84;;;23.48;29.24
77706;BME280;66874;45.274;5.880;2023-04-25T16:16:11;98553.84;;;23.59;29.19
77706;BME280;66874;45.274;5.880;2023-04-25T16:18:36;98553.72;;;23.95;29.11
77706;BME280;66874;45.274;5.880;2023-04-25T16:21:02;98564.22;;;24.07;28.95
77706;BME280;66874;45.274;5.880;2023-04-25T16:23:28;98563.84;;;24.12;28.66
77706;BME280;66874;45.274;5.880;2023-04-25T16:25:53;98571.88;;;24.01;28.36
77706;BME280;66874;45.274;5.880;2023-04-25T16:28:19;98563.06;;;23.89;28.38
77706;BME280;66874;45.274;5.880;2023-04-25T16:30:45;98564.84;;;24.00;28.66
77706;BME280;66874;45.274;5.880;2023-04-25T16:33:10;98551.66;;;24.19;28.42
77706;BME280;66874;45.274;5.880;2023-04-25T16:35:36;98549.19;;;24.27;28.42
77706;BME280;66874;45.274;5.880;2023-04-25T16:38:01;98553.63;;;24.06;28.15
77706;BME280;66874;45.274;5.880;2023-04-25T16:40:27;98541.13;;;24.18;28.55
77706;BME280;66874;45.274;5.880;2023-04-25T16:42:52;98544.63;;;24.18;28.57
77706;BME280;66874;45.274;5.880;2023-04-25T16:45:19;98541.00;;;24.08;28.73
77706;BME280;66874;45.274;5.880;2023-04-25T16:47:45;98544.91;;;23.49;28.82
77706;BME280;66874;45.274;5.880;2023-04-25T16:50:14;98543.69;;;23.08;29.06
77706;BME280;66874;45.274;5.880;2023-04-25T16:52:40;98544.25;;;22.89;29.04
77706;BME280;66874;45.274;5.880;2023-04-25T16:55:05;98550.72;;;22.52;29.64
77706;BME280;66874;45.274;5.880;2023-04-25T16:57:33;98552.03;;;22.11;29.74
77706;BME280;66874;45.274;5.880;2023-04-25T16:59:58;98561.75;;;21.75;30.22
77706;BME280;66874;45.274;5.880;2023-04-25T17:02:24;98570.47;;;21.40;30.47
77706;BME280;66874;45.274;5.880;2023-04-25T17:04:49;98571.75;;;21.22;30.57
77706;BME280;66874;45.274;5.880;2023-04-25T17:07:14;98574.97;;;21.14;30.77
77706;BME280;66874;45.274;5.880;2023-04-25T17:09:40;98575.78;;;21.28;31.00
77706;BME280;66874;45.274;5.880;2023-04-25T17:12:06;98578.88;;;21.09;31.49
77706;BME280;66874;45.274;5.880;2023-04-25T17:14:33;98588.97;;;20.78;31.48
77706;BME280;66874;45.274;5.880;2023-04-25T17:17:00;98581.34;;;20.46;31.86
77706;BME280;66874;45.274;5.880;2023-04-25T17:19:26;98583.53;;;20.27;32.01
77706;BME280;66874;45.274;5.880;2023-04-25T17:21:52;98588.75;;;20.02;32.31
77706;BME280;66874;45.274;5.880;2023-04-25T17:24:17;98592.06;;;19.78;32.51
77706;BME280;66874;45.274;5.880;2023-04-25T17:26:45;98586.31;;;19.43;33.09
77706;BME280;66874;45.274;5.880;2023-04-25T17:29:10;98594.91;;;19.18;33.64
77706;BME280;66874;45.274;5.880;2023-04-25T17:31:36;98588.00;;;18.87;34.06
77706;BME280;66874;45.274;5.880;2023-04-25T17:34:02;98588.22;;;18.53;34.34
77706;BME280;66874;45.274;5.880;2023-04-25T17:36:28;98593.22;;;18.28;34.34
77706;BME280;66874;45.274;5.880;2023-04-25T17:38:55;98600.41;;;18.10;34.83
77706;BME280;66874;45.274;5.880;2023-04-25T17:41:20;98601.72;;;17.87;35.03
77706;BME280;66874;45.274;5.880;2023-04-25T17:43:46;98608.50;;;17.77;35.17
77706;BME280;66874;45.274;5.880;2023-04-25T17:46:11;98616.81;;;17.53;35.58
77706;BME280;66874;45.274;5.880;2023-04-25T17:48:37;98610.47;;;17.40;36.23
77706;BME280;66874;45.274;5.880;2023-04-25T17:51:02;98622.72;;;17.25;37.16
77706;BME280;66874;45.274;5.880;2023-04-25T17:53:28;98626.72;;;17.17;37.48
77706;BME280;66874;45.274;5.880;2023-04-25T17:55:53;98614.06;;;17.06;37.87
77706;BME280;66874;45.274;5.880;2023-04-25T17:58:20;98610.16;;;16.80;37.85
77706;BME280;66874;45.274;5.880;2023-04-25T18:00:45;98610.66;;;16.52;38.14
77706;BME280;66874;45.274;5.880;2023-04-25T18:03:11;98605.91;;;16.41;38.25
77706;BME280;66874;45.274;5.880;2023-04-25T18:05:36;98616.00;;;16.33;38.40